Terminal Aerodrome Forecast
Issued by NWS

Home | Current Version | Previous Version | Graphics & Text | Print | Product List | Glossary On
Versions: 1 2 3 4 5 6 7 8 9 10 11 12 13 14 15 16 17 18 19 20 21 22 23 24 25 26
000
FTUS43 KLSX 252100 AAA
TAFSUS
TAF AMD
KSUS 252107Z 2521/2618 36005KT P6SM VCSH OVC100
     FM252230 01008KT 5SM -SHRA VCTS SCT040CB BKN080
     FM260600 35010KT 3SM -RA BR SCT007 OVC015
     FM261200 33010KT P6SM BKN080
     FM261500 32012KT P6SM SKC=

USA.gov is the U.S. government's official web portal to all federal, state and local government web resources and services.